Terminal Aerodrome Forecast
Issued by NWS Charleston, WV

Current Version | Previous Version | Graphics & Text | Print | Product List | Glossary On
Versions: 1 2 3 4 5 6 7 8 9 10 11 12 13 14 15 16 17 18 19 20 21 22 23 24 25
978
FTUS41 KRLX 180530
TAFPKB
TAF
KPKB 180530Z 1806/1906 22005KT P6SM SKC
     FM181700 23008KT P6SM BKN150
     FM190200 23005KT P6SM OVC050=

USA.gov is the U.S. government's official web portal to all federal, state and local government web resources and services.